Time;durP1;ratioP1;P1;durP2;ratioP2;P2;SDS_P1;SDS_P2;PMS_P1;PMS_P2;Temp;Humidity;BMP_temperature;BMP_pressure;BME280_temperature;BME280_humidity;BME280_pressure;Samples;Min_cycle;Max_cycle;Signal;HPM_P1;HPM_P2
2021/11/19 00:13:10;;;;;;;52.20;41.08;;;22.30;57.10;;;;;;31496578;28;20045;-43
2021/11/19 00:28:14;;;;;;;48.08;38.88;;;22.30;56.70;;;;;;31496005;28;20041;-38
2021/11/19 00:43:17;;;;;;;45.97;37.05;;;22.30;57.00;;;;;;31495575;28;20048;-41
2021/11/19 00:58:20;;;;;;;42.13;35.15;;;22.80;58.90;;;;;;31498261;28;20064;-49
2021/11/19 01:13:23;;;;;;;40.92;32.97;;;22.90;57.50;;;;;;31496817;28;20076;-42
2021/11/19 01:28:26;;;;;;;42.00;32.58;;;22.90;57.80;;;;;;31497883;28;20095;-41
2021/11/19 01:43:30;;;;;;;36.13;30.25;;;22.80;58.20;;;;;;31493289;28;20074;-44
2021/11/19 01:58:44;;;;;;;36.35;30.58;;;22.70;58.40;;;;;;31512581;28;20106;-35
2021/11/19 02:14:09;;;;;;;38.25;30.13;;;22.60;58.30;;;;;;31512270;28;20068;-37
2021/11/19 02:29:12;;;;;;;36.10;29.95;;;22.50;58.30;;;;;;31509411;28;20080;-40
2021/11/19 02:44:19;;;;;;;34.13;28.83;;;22.40;58.50;;;;;;31510489;28;20064;-43
2021/11/19 02:59:22;;;;;;;33.38;27.80;;;22.40;58.90;;;;;;31509554;28;20053;-44
2021/11/19 03:14:24;;;;;;;33.35;26.20;;;22.40;59.10;;;;;;31508219;28;20100;-42
2021/11/19 03:29:27;;;;;;;20.65;17.48;;;22.30;59.20;;;;;;31502974;28;20045;-44
2021/11/19 03:44:36;;;;;;;22.60;16.83;;;22.30;59.10;;;;;;31486522;28;20049;-44
2021/11/19 03:59:39;;;;;;;19.48;14.27;;;22.60;59.10;;;;;;31500316;28;20083;-45
2021/11/19 04:14:41;;;;;;;16.92;13.48;;;22.70;58.80;;;;;;31497070;28;20072;-45
2021/11/19 04:29:44;;;;;;;17.88;13.05;;;22.70;58.90;;;;;;31478512;28;20109;-46
2021/11/19 04:44:47;;;;;;;18.80;13.07;;;22.60;59.00;;;;;;31495040;28;20044;-49
2021/11/19 04:59:49;;;;;;;15.45;12.32;;;22.60;59.10;;;;;;31494052;28;20080;-44
2021/11/19 05:14:51;;;;;;;16.75;12.23;;;22.50;59.20;;;;;;31476119;28;20128;-43
2021/11/19 05:29:53;;;;;;;15.63;11.70;;;22.40;59.30;;;;;;31509713;28;20064;-40
2021/11/19 05:44:55;;;;;;;16.17;11.32;;;22.40;59.70;;;;;;31514871;28;20044;-39
2021/11/19 05:59:57;;;;;;;16.15;11.50;;;22.30;60.00;;;;;;31514025;28;20144;-40
2021/11/19 06:15:03;;;;;;;28.92;12.60;;;22.40;59.80;;;;;;31547973;28;20091;-39
2021/11/19 06:30:09;;;;;;;38.80;29.80;;;22.80;59.30;;;;;;31632277;28;20123;-41
2021/11/19 06:45:14;;;;;;;36.42;26.77;;;22.70;57.80;;;;;;31631136;28;20129;-42
2021/11/19 07:00:25;;;;;;;58.20;40.85;;;22.40;52.40;;;;;;31612060;28;20057;-40
2021/11/19 07:15:27;;;;;;;48.80;36.17;;;22.30;52.00;;;;;;31627767;28;20096;-43
2021/11/19 07:30:33;;;;;;;43.47;30.63;;;22.30;52.10;;;;;;31625582;28;20127;-39
2021/11/19 07:45:37;;;;;;;37.08;28.75;;;22.20;51.10;;;;;;31623758;28;20040;-40
2021/11/19 08:00:41;;;;;;;36.28;24.45;;;22.00;51.00;;;;;;31623268;28;20064;-40
2021/11/19 08:15:44;;;;;;;29.17;21.83;;;22.40;52.20;;;;;;31603879;28;20049;-44
2021/11/19 08:30:49;;;;;;;51.22;36.80;;;22.50;52.10;;;;;;31620431;28;20044;-45
2021/11/19 08:45:53;;;;;;;56.17;34.78;;;22.40;51.60;;;;;;31618944;28;20044;-39
2021/11/19 09:00:57;;;;;;;46.00;28.80;;;22.30;51.60;;;;;;31629664;28;20110;-42
2021/11/19 09:16:03;;;;;;;35.25;25.67;;;22.10;50.30;;;;;;31623081;28;20120;-45
2021/11/19 09:31:07;;;;;;;36.20;25.85;;;22.10;51.00;;;;;;31637870;28;20070;-42
2021/11/19 09:46:54;;;;;;;36.75;25.67;;;22.00;51.90;;;;;;31638832;28;20041;-46
2021/11/19 10:02:15;;;;;;;25.63;19.70;;;22.30;52.00;;;;;;31381170;28;20052;-38
2021/11/19 10:18:11;;;;;;;24.35;19.98;;;22.60;52.10;;;;;;31634232;28;20048;-43
2021/11/19 10:33:35;;;;;;;25.45;17.67;;;22.60;52.50;;;;;;31591838;28;20067;-42
2021/11/19 10:48:58;;;;;;;22.25;16.75;;;22.50;52.70;;;;;;31630625;28;20060;-43
2021/11/19 11:04:29;;;;;;;18.73;15.20;;;22.40;53.00;;;;;;31629471;28;20041;-43
2021/11/19 11:19:32;;;;;;;20.55;15.13;;;22.30;53.00;;;;;;31601467;28;20057;-43
2021/11/19 11:35:03;;;;;;;18.83;14.50;;;22.30;53.30;;;;;;31625881;28;20123;-48
2021/11/19 11:50:39;;;;;;;16.70;12.30;;;22.40;53.20;;;;;;31606154;28;20053;-48
2021/11/19 12:06:02;;;;;;;15.50;12.70;;;22.70;53.30;;;;;;31622647;28;20040;-44
2021/11/19 12:21:20;;;;;;;20.25;11.63;;;22.70;53.30;;;;;;31573245;28;20068;-49
2021/11/19 12:36:34;;;;;;;23.40;16.70;;;22.60;53.40;;;;;;31518271;28;20053;-46
2021/11/19 12:51:51;;;;;;;25.73;15.25;;;22.40;52.60;;;;;;31488701;28;20104;-40
2021/11/19 13:06:59;;;;;;;23.23;16.08;;;22.40;52.70;;;;;;31570625;28;20056;-43
2021/11/19 13:22:06;;;;;;;23.58;15.95;;;22.50;53.00;;;;;;31536075;28;20044;-39
2021/11/19 13:37:21;;;;;;;26.83;17.25;;;22.50;53.40;;;;;;31608880;28;20082;-43
2021/11/19 13:52:30;;;;;;;38.30;20.40;;;22.50;53.50;;;;;;31523598;28;20080;-34
2021/11/19 14:07:35;;;;;;;41.20;20.70;;;22.40;53.80;;;;;;31505789;28;20060;-43
2021/11/19 14:22:45;;;;;;;38.13;19.83;;;22.40;54.40;;;;;;31613182;28;20045;-44
2021/11/19 14:37:49;;;;;;;49.38;24.15;;;22.30;55.00;;;;;;31623714;28;20051;-42
2021/11/19 14:52:55;;;;;;;44.08;19.98;;;22.30;56.60;;;;;;31602776;28;20083;-41
2021/11/19 15:07:59;;;;;;;31.55;19.33;;;22.30;55.90;;;;;;31619063;28;20428;-43
2021/11/19 15:23:28;;;;;;;32.70;17.63;;;22.20;56.80;;;;;;31211729;28;10000156;-39
2021/11/19 15:38:36;;;;;;;38.28;25.00;;;22.30;56.20;;;;;;31518645;28;20048;-36
2021/11/19 15:53:49;;;;;;;75.22;52.17;;;22.10;56.40;;;;;;31616721;28;20052;-42
2021/11/19 16:08:57;;;;;;;48.72;36.88;;;21.80;54.80;;;;;;31600681;28;20455;-47
2021/11/19 16:23:59;;;;;;;50.05;37.47;;;21.60;53.40;;;;;;31552997;28;20056;-42
2021/11/19 16:39:06;;;;;;;43.15;31.25;;;21.50;54.20;;;;;;31502246;28;20056;-41
2021/11/19 16:54:08;;;;;;;81.93;63.03;;;21.70;53.50;;;;;;31492559;28;20168;-49
2021/11/19 17:09:15;;;;;;;59.00;42.25;;;22.30;50.80;;;;;;31488803;28;20102;-49
2021/11/19 17:24:19;;;;;;;44.70;34.63;;;22.40;49.80;;;;;;31504045;28;20093;-48
2021/11/19 17:39:32;;;;;;;43.28;28.85;;;22.20;51.20;;;;;;31571363;28;20048;-53
2021/11/19 17:54:35;;;;;;;50.00;28.70;;;22.30;49.50;;;;;;31641472;28;20114;-37
2021/11/19 18:09:40;;;;;;;37.47;25.80;;;22.40;51.70;;;;;;31637612;28;20051;-37
2021/11/19 18:24:46;;;;;;;36.03;24.60;;;22.40;52.60;;;;;;31635288;28;20067;-37
2021/11/19 18:39:51;;;;;;;34.05;24.45;;;22.40;53.30;;;;;;31632596;28;20059;-38
2021/11/19 18:54:54;;;;;;;31.90;22.90;;;22.30;53.50;;;;;;31200579;28;10000315;-40
2021/11/19 19:09:56;;;;;;;31.35;22.35;;;22.30;53.90;;;;;;31509044;28;20401;-37
2021/11/19 19:25:01;;;;;;;28.17;20.65;;;22.20;54.20;;;;;;31540572;28;20393;-54
2021/11/19 19:40:07;;;;;;;29.60;20.70;;;22.20;54.20;;;;;;31631094;28;20060;-48
2021/11/19 19:55:13;;;;;;;26.25;19.48;;;22.20;54.60;;;;;;31628613;28;20075;-41
2021/11/19 20:10:22;;;;;;;37.00;17.08;;;22.10;54.80;;;;;;31585804;28;20043;-41
2021/11/19 20:25:36;;;;;;;21.63;16.40;;;22.30;54.70;;;;;;31537571;28;20048;-39
2021/11/19 20:40:39;;;;;;;23.50;15.73;;;22.40;54.80;;;;;;31590595;28;20045;-44
2021/11/19 20:55:45;;;;;;;19.88;15.60;;;22.40;55.10;;;;;;31539373;28;20112;-48
2021/11/19 21:10:49;;;;;;;28.70;20.38;;;22.20;54.40;;;;;;31568875;28;20060;-42
2021/11/19 21:25:54;;;;;;;23.60;19.88;;;22.30;54.90;;;;;;31585245;28;20048;-43
2021/11/19 21:41:01;;;;;;;21.10;16.55;;;22.30;55.20;;;;;;31564808;28;20044;-50
2021/11/19 22:11:21;;;;;;;20.25;16.70;;;22.40;55.30;;;;;;31562602;28;20041;-38
2021/11/19 22:26:25;;;;;;;19.08;16.40;;;22.40;55.50;;;;;;31531031;28;20045;-44
2021/11/19 22:41:35;;;;;;;21.02;16.98;;;22.40;55.70;;;;;;31575144;28;20072;-35
2021/11/19 22:56:39;;;;;;;122.53;95.60;;;22.40;55.90;;;;;;31588088;28;20060;-36
2021/11/19 23:11:41;;;;;;;47.88;37.08;;;22.30;55.20;;;;;;31548922;28;20052;-36
2021/11/19 23:26:46;;;;;;;50.30;36.00;;;22.40;55.60;;;;;;31617728;28;20104;-45
2021/11/19 23:41:50;;;;;;;48.97;33.95;;;22.30;56.00;;;;;;31592402;28;20159;-46
2021/11/19 23:56:53;;;;;;;45.10;34.00;;;22.30;56.60;;;;;;31529492;28;20049;-45
